Time;durP1;ratioP1;P1;durP2;ratioP2;P2;SDS_P1;SDS_P2;PMS_P1;PMS_P2;Temp;Humidity;BMP_temperature;BMP_pressure;BME280_temperature;BME280_humidity;BME280_pressure;Samples;Min_cycle;Max_cycle;Signal;HPM_P1;HPM_P2
2022/08/18 05:21:12;;;;;;;;;12.00;10.00;;;;;23.50;56.63;100992.13;4997060;27;45468;-70
2022/08/18 05:23:37;;;;;;;;;13.00;11.33;;;;;23.62;56.30;101000.81;4974313;28;45423;-71
2022/08/18 05:26:03;;;;;;;;;10.33;10.33;;;;;23.79;56.38;101001.72;4968362;27;45293;-69
2022/08/18 05:28:30;;;;;;;;;8.67;8.00;;;;;24.01;56.07;100995.84;4976885;27;45440;-71
2022/08/18 05:30:56;;;;;;;;;10.67;10.67;;;;;24.21;55.99;100994.56;4967882;28;45488;-71
2022/08/18 05:33:23;;;;;;;;;9.67;9.67;;;;;24.50;54.86;100997.81;4966892;28;45325;-71
2022/08/18 05:35:53;;;;;;;;;12.67;12.67;;;;;24.75;54.81;100997.81;4990662;27;45514;-71
2022/08/18 05:38:34;;;;;;;;;12.00;9.33;;;;;25.00;54.11;101001.41;4974110;28;45823;-72
2022/08/18 05:41:18;;;;;;;;;10.67;10.67;;;;;25.26;53.47;101013.06;5001054;27;46205;-72
2022/08/18 05:43:45;;;;;;;;;11.33;10.67;;;;;25.48;53.44;101010.59;5034269;27;45497;-72
2022/08/18 05:46:11;;;;;;;;;9.67;9.67;;;;;25.63;52.47;101008.88;4995004;27;45540;-72
2022/08/18 05:48:37;;;;;;;;;12.00;11.00;;;;;25.84;52.32;101018.31;4973345;28;45430;-72
2022/08/18 05:51:15;;;;;;;;;10.00;10.00;;;;;26.03;51.99;101027.03;4967433;28;45926;-70
2022/08/18 05:56:46;;;;;;;;;10.00;10.00;;;;;26.33;51.50;101016.34;4968842;28;45988;-71
2022/08/18 05:59:16;;;;;;;;;8.67;8.00;;;;;26.48;50.74;101023.72;4967780;28;45450;-71
2022/08/18 06:01:50;;;;;;;;;11.33;11.00;;;;;26.61;50.66;101026.69;4967139;28;45619;-71
2022/08/18 06:04:15;;;;;;;;;12.00;11.00;;;;;26.73;50.36;101029.78;4977008;28;45566;-72
2022/08/18 06:06:43;;;;;;;;;11.67;11.67;;;;;26.82;50.17;101025.13;4979608;27;45458;-71
2022/08/18 06:09:27;;;;;;;;;13.33;12.00;;;;;26.90;49.72;101022.34;4976350;28;45369;-70
2022/08/18 06:12:10;;;;;;;;;12.67;11.33;;;;;27.00;49.28;101026.69;4979473;27;45926;-72
2022/08/18 06:14:37;;;;;;;;;11.00;11.00;;;;;27.05;49.42;101038.72;4982264;27;50334;-72
2022/08/18 06:17:31;;;;;;;;;11.33;10.00;;;;;27.12;49.24;101035.25;4979242;27;45462;-72
2022/08/18 06:20:13;;;;;;;;;15.00;15.00;;;;;27.21;49.13;101050.50;4974589;27;45688;-73
2022/08/18 06:22:49;;;;;;;;;13.00;13.00;;;;;27.26;48.72;101044.50;4970647;27;46114;-71
2022/08/18 06:25:17;;;;;;;;;12.00;11.67;;;;;27.32;48.42;101051.91;4975326;28;45557;-71
2022/08/18 06:27:58;;;;;;;;;13.00;13.00;;;;;27.38;48.30;101045.72;5018184;27;45532;-71
2022/08/18 06:31:04;;;;;;;;;13.67;10.33;;;;;27.45;47.85;101043.06;4984464;28;45567;-71
2022/08/18 06:34:03;;;;;;;;;13.00;13.00;;;;;27.50;48.31;101054.25;4953235;28;45481;-71
2022/08/18 06:36:42;;;;;;;;;11.33;9.00;;;;;27.55;47.43;101049.09;4961953;28;45692;-70
2022/08/18 06:39:21;;;;;;;;;14.33;12.00;;;;;27.59;47.76;101069.50;4973972;28;45521;-70
2022/08/18 06:41:49;;;;;;;;;14.00;12.33;;;;;27.61;48.06;101059.28;4964243;28;45466;-71
2022/08/18 06:44:43;;;;;;;;;12.33;12.33;;;;;27.64;47.96;101060.78;4958797;28;45400;-71
2022/08/18 06:47:51;;;;;;;;;13.33;13.33;;;;;27.68;47.61;101063.97;4957876;28;45528;-71
2022/08/18 06:50:25;;;;;;;;;13.67;11.00;;;;;27.70;47.32;101054.56;4963321;28;45440;-72
2022/08/18 06:53:03;;;;;;;;;11.00;11.00;;;;;27.77;47.18;101054.66;4971467;28;45281;-71
2022/08/18 06:55:44;;;;;;;;;14.00;12.00;;;;;27.80;47.53;101050.72;4954284;28;45730;-71
2022/08/18 06:58:12;;;;;;;;;14.00;13.67;;;;;27.83;46.92;101050.34;4955239;28;45870;-71
2022/08/18 07:00:42;;;;;;;;;14.67;14.67;;;;;27.87;47.25;101055.22;4968788;28;45524;-71
2022/08/18 07:03:15;;;;;;;;;14.67;14.67;;;;;27.92;46.79;101061.97;4963951;28;45527;-71
2022/08/18 07:06:04;;;;;;;;;16.67;15.00;;;;;27.96;46.79;101066.03;4953914;28;45495;-71
2022/08/18 07:08:36;;;;;;;;;18.33;16.33;;;;;27.99;47.02;101071.06;4957569;28;45448;-71
2022/08/18 07:11:29;;;;;;;;;17.00;17.00;;;;;28.01;47.26;101071.75;4968447;28;45408;-71
2022/08/18 07:14:19;;;;;;;;;19.33;19.00;;;;;28.03;47.17;101075.13;4975970;28;45711;-71
2022/08/18 07:16:45;;;;;;;;;19.67;19.00;;;;;28.05;46.91;101072.19;4964015;28;45533;-70
2022/08/18 07:19:15;;;;;;;;;20.00;20.00;;;;;28.06;47.13;101072.00;4963331;28;45432;-70
2022/08/18 07:21:42;;;;;;;;;19.00;16.00;;;;;28.05;46.91;101069.47;4954643;28;45387;-70
2022/08/18 07:24:30;;;;;;;;;18.67;18.33;;;;;28.05;46.49;101075.78;4967573;28;46186;-72
2022/08/18 07:27:26;;;;;;;;;17.33;17.33;;;;;28.09;46.31;101068.06;4968805;28;46457;-72
2022/08/18 07:30:04;;;;;;;;;18.00;18.00;;;;;28.10;46.39;101076.06;5076945;27;45589;-71
2022/08/18 07:32:39;;;;;;;;;20.33;19.33;;;;;28.09;46.91;101065.34;5067985;28;45525;-70
2022/08/18 07:35:08;;;;;;;;;18.00;18.00;;;;;28.14;46.99;101071.06;5072449;28;45554;-70
2022/08/18 07:37:47;;;;;;;;;18.00;18.00;;;;;28.15;46.87;101070.88;5071856;28;45550;-71
2022/08/18 07:40:35;;;;;;;;;22.67;19.67;;;;;28.17;46.45;101070.69;5068762;27;45541;-70
2022/08/18 07:43:17;;;;;;;;;18.67;17.67;;;;;28.15;46.83;101067.28;5065783;27;45396;-71
2022/08/18 07:45:45;;;;;;;;;19.67;19.67;;;;;28.21;46.89;101076.59;5052997;28;45697;-72
2022/08/18 07:48:12;;;;;;;;;18.67;18.33;;;;;28.23;46.34;101078.09;5071018;28;46648;-72
2022/08/18 07:50:52;;;;;;;;;19.67;19.67;;;;;28.24;46.87;101070.75;5071422;28;47210;-71
2022/08/18 07:53:33;;;;;;;;;20.67;18.00;;;;;28.26;46.33;101072.28;5072515;28;45533;-72
2022/08/18 07:56:05;;;;;;;;;21.00;20.33;;;;;28.26;46.62;101071.44;5073329;28;45516;-71
2022/08/18 07:58:47;;;;;;;;;19.33;19.33;;;;;28.28;46.35;101078.38;5071086;28;46351;-71
2022/08/18 08:01:39;;;;;;;;;18.33;18.00;;;;;28.31;46.11;101073.59;5072287;28;45541;-72
2022/08/18 08:04:22;;;;;;;;;17.67;17.33;;;;;28.32;46.70;101070.66;5068457;27;45423;-72
2022/08/18 08:07:18;;;;;;;;;22.33;20.67;;;;;28.35;46.51;101069.41;5021754;27;45542;-72
2022/08/18 08:10:00;;;;;;;;;23.00;21.67;;;;;28.34;46.14;101063.13;4961815;28;46301;-72
2022/08/18 08:12:42;;;;;;;;;20.33;20.33;;;;;28.33;46.32;101061.44;5016317;28;45565;-72
2022/08/18 08:15:26;;;;;;;;;19.67;17.67;;;;;28.34;45.82;101060.41;4967293;28;45463;-71
2022/08/18 08:18:20;;;;;;;;;21.00;18.00;;;;;28.33;46.61;101066.91;4964863;28;45327;-71
2022/08/18 08:20:57;;;;;;;;;24.00;19.67;;;;;28.34;45.95;101063.13;4956962;28;46476;-71
2022/08/18 08:24:07;;;;;;;;;23.00;20.33;;;;;28.34;46.17;101059.53;4958627;28;45427;-71
2022/08/18 08:27:00;;;;;;;;;24.33;23.00;;;;;28.33;46.12;101058.72;4980220;28;45488;-70
2022/08/18 08:29:42;;;;;;;;;24.00;24.00;;;;;28.36;45.94;101058.31;4962418;28;45607;-71
2022/08/18 08:32:13;;;;;;;;;23.33;23.33;;;;;28.39;46.77;101051.63;4977690;28;45447;-71
2022/08/18 08:34:41;;;;;;;;;23.00;23.00;;;;;28.39;46.37;101049.75;5017201;28;45307;-71
2022/08/18 08:37:18;;;;;;;;;23.33;21.67;;;;;28.40;46.20;101053.31;4959593;28;45493;-71
2022/08/18 08:39:50;;;;;;;;;25.67;23.67;;;;;28.41;46.22;101055.84;4961195;28;45742;-71
2022/08/18 08:42:39;;;;;;;;;27.33;26.00;;;;;28.40;46.13;101064.22;4953527;28;46335;-71
2022/08/18 08:45:12;;;;;;;;;21.67;20.33;;;;;28.39;46.29;101057.06;4952997;28;46510;-70
2022/08/18 08:47:42;;;;;;;;;23.67;22.67;;;;;28.43;45.94;101069.31;4967904;28;45751;-70
2022/08/18 08:50:18;;;;;;;;;26.67;23.33;;;;;28.42;46.01;101070.34;4985878;28;45411;-71
2022/08/18 08:52:53;;;;;;;;;25.67;23.33;;;;;28.41;46.15;101064.03;4953131;28;45684;-71
2022/08/18 08:55:26;;;;;;;;;26.33;26.33;;;;;28.41;46.30;101060.47;4952112;28;45380;-71
2022/08/18 08:58:21;;;;;;;;;27.00;26.67;;;;;28.41;46.07;101065.94;4953021;28;45923;-71
2022/08/18 09:00:48;;;;;;;;;24.00;24.00;;;;;28.43;45.88;101060.25;4956436;28;45422;-71
2022/08/18 09:03:35;;;;;;;;;28.67;25.00;;;;;28.44;46.03;101065.53;4957123;28;46978;-72
2022/08/18 09:06:15;;;;;;;;;26.00;26.00;;;;;28.47;45.82;101069.75;4960620;28;45347;-71
2022/08/18 09:08:58;;;;;;;;;28.33;26.00;;;;;28.49;46.16;101067.69;4951962;28;45768;-71
2022/08/18 09:11:31;;;;;;;;;25.00;25.00;;;;;28.48;45.54;101061.38;4957845;28;45787;-71
2022/08/18 09:13:56;;;;;;;;;27.67;26.33;;;;;28.51;46.18;101065.59;4958927;28;46562;-72
2022/08/18 09:16:50;;;;;;;;;27.67;26.67;;;;;28.51;45.54;101074.66;4953709;28;45889;-71
2022/08/18 09:19:50;;;;;;;;;27.33;25.33;;;;;28.52;46.01;101081.78;4956641;28;45469;-70
2022/08/18 09:22:47;;;;;;;;;24.67;23.33;;;;;28.53;46.08;101088.09;4957611;28;45497;-71
2022/08/18 09:25:33;;;;;;;;;27.00;25.67;;;;;28.52;45.71;101089.97;4974016;28;45549;-71
2022/08/18 09:28:14;;;;;;;;;22.67;20.67;;;;;28.52;46.46;101092.72;4955803;28;45502;-71
2022/08/18 09:30:49;;;;;;;;;27.67;23.33;;;;;28.54;46.18;101090.63;4957813;28;45404;-71
2022/08/18 09:33:32;;;;;;;;;23.67;23.00;;;;;28.56;46.03;101095.06;4958398;28;45679;-71
2022/08/18 09:36:19;;;;;;;;;26.33;26.33;;;;;28.54;45.93;101090.63;4958888;28;45502;-71
2022/08/18 09:42:00;;;;;;;;;28.33;28.00;;;;;28.54;45.60;101089.78;4953132;28;45632;-72
2022/08/18 09:44:57;;;;;;;;;19.33;18.33;;;;;28.58;45.84;101095.69;4951608;28;45658;-72
2022/08/18 09:47:27;;;;;;;;;19.00;17.00;;;;;28.58;45.75;101096.56;4970605;28;47469;-72
2022/08/18 09:49:55;;;;;;;;;19.33;18.67;;;;;28.57;45.92;101089.38;4952603;28;45509;-71
2022/08/18 09:52:20;;;;;;;;;20.00;19.33;;;;;28.52;45.69;101089.97;4952400;28;45506;-71
2022/08/18 09:54:52;;;;;;;;;21.33;21.00;;;;;28.51;45.37;101095.63;4951088;28;45505;-71
2022/08/18 09:57:21;;;;;;;;;20.00;18.67;;;;;28.54;45.40;101092.53;4951933;28;45478;-71
2022/08/18 09:59:46;;;;;;;;;22.67;21.67;;;;;28.57;45.79;101088.56;4953636;28;45350;-70
2022/08/18 10:02:36;;;;;;;;;25.00;23.00;;;;;28.59;45.98;101081.84;4950799;28;45441;-71
2022/08/18 10:05:19;;;;;;;;;17.00;16.67;;;;;28.60;45.47;101075.34;4961289;28;45519;-71
2022/08/18 10:07:55;;;;;;;;;25.00;21.00;;;;;28.59;46.05;101073.66;4955654;28;47173;-71
2022/08/18 10:10:31;;;;;;;;;19.00;17.67;;;;;28.58;45.26;101066.53;4974194;28;45414;-71
2022/08/18 10:13:32;;;;;;;;;23.00;21.00;;;;;28.61;45.82;101054.38;4955031;28;45883;-72
2022/08/18 10:16:06;;;;;;;;;17.67;16.33;;;;;28.59;45.68;101048.22;5047260;28;45917;-72
2022/08/18 10:18:49;;;;;;;;;23.67;19.67;;;;;28.65;45.38;101047.47;5054188;28;46383;-71
2022/08/18 10:21:26;;;;;;;;;23.00;23.00;;;;;28.66;45.39;101051.88;5052288;28;45565;-71
2022/08/18 10:24:03;;;;;;;;;29.33;24.67;;;;;28.69;45.28;101051.47;5054378;28;45573;-71
2022/08/18 10:26:28;;;;;;;;;19.33;17.67;;;;;28.69;45.27;101046.00;5037551;28;45581;-72
2022/08/18 10:28:58;;;;;;;;;21.00;19.67;;;;;28.68;45.59;101038.88;5054994;28;45457;-71
2022/08/18 10:31:25;;;;;;;;;24.67;23.67;;;;;28.71;45.08;101043.09;5048421;28;45847;-71
2022/08/18 10:34:06;;;;;;;;;21.00;18.33;;;;;28.71;45.22;101033.03;5053856;28;45605;-71
2022/08/18 10:36:44;;;;;;;;;21.33;20.33;;;;;28.72;45.42;101034.72;5044900;28;45731;-70
2022/08/18 10:39:13;;;;;;;;;22.00;22.00;;;;;28.73;45.69;101036.38;5053925;28;45540;-71
2022/08/18 10:41:51;;;;;;;;;24.00;21.67;;;;;28.74;45.39;101032.66;5053314;28;45526;-71
2022/08/18 10:44:21;;;;;;;;;26.67;25.00;;;;;28.76;45.30;101038.75;5054299;28;45542;-71
2022/08/18 10:46:48;;;;;;;;;22.33;21.00;;;;;28.75;45.14;101030.75;5053477;28;45431;-70
2022/08/18 10:49:24;;;;;;;;;19.33;18.67;;;;;28.78;45.30;101038.53;5052370;28;45526;-71
2022/08/18 10:52:01;;;;;;;;;19.33;19.33;;;;;28.77;44.99;101029.50;5039508;28;45589;-71
2022/08/18 10:54:42;;;;;;;;;23.33;20.67;;;;;28.78;45.29;101031.19;4954466;28;45446;-71
2022/08/18 10:57:26;;;;;;;;;21.67;21.00;;;;;28.78;44.58;101031.19;4998475;28;45752;-71
2022/08/18 11:00:00;;;;;;;;;23.33;23.33;;;;;28.80;44.87;101029.13;4957394;28;46136;-71
2022/08/18 11:03:03;;;;;;;;;22.33;20.67;;;;;28.81;44.87;101035.41;4951696;28;45438;-71
2022/08/18 11:05:28;;;;;;;;;22.00;21.33;;;;;28.81;44.95;101032.66;4965658;28;45682;-71
2022/08/18 11:07:59;;;;;;;;;25.67;23.33;;;;;28.82;44.89;101022.59;4968367;28;45581;-71
2022/08/18 11:10:42;;;;;;;;;20.67;20.67;;;;;28.82;44.94;101025.34;4983231;27;48514;-70
2022/08/18 11:13:28;;;;;;;;;19.67;19.67;;;;;28.83;45.21;101014.22;4954998;28;45441;-71
2022/08/18 11:16:31;;;;;;;;;20.67;20.67;;;;;28.82;44.29;101015.25;4957998;28;45494;-71
2022/08/18 11:19:06;;;;;;;;;21.00;21.00;;;;;28.83;44.58;101021.56;5051428;28;45692;-71
2022/08/18 11:21:47;;;;;;;;;19.33;18.33;;;;;28.82;44.41;101022.59;5051290;28;45485;-71
2022/08/18 11:24:24;;;;;;;;;22.33;21.67;;;;;28.80;44.61;101023.66;5053587;28;45422;-71
2022/08/18 11:26:54;;;;;;;;;23.33;20.33;;;;;28.80;44.55;101020.91;5035960;28;45427;-70
2022/08/18 11:29:39;;;;;;;;;18.67;18.00;;;;;28.82;44.68;101022.59;5053328;28;45563;-70
2022/08/18 11:32:15;;;;;;;;;17.33;17.00;;;;;28.83;44.18;101008.75;5051296;28;46128;-71
2022/08/18 11:34:48;;;;;;;;;21.33;18.67;;;;;28.82;44.33;101019.88;5047571;28;45789;-71
2022/08/18 11:37:27;;;;;;;;;21.67;20.67;;;;;28.76;44.30;101014.16;5045065;28;45473;-71
2022/08/18 11:39:56;;;;;;;;;16.33;16.00;;;;;28.83;44.08;101018.81;5034074;28;45474;-71
2022/08/18 11:42:34;;;;;;;;;19.33;19.33;;;;;28.84;44.54;101020.50;5046692;28;46214;-71
2022/08/18 11:45:18;;;;;;;;;21.33;19.33;;;;;28.85;44.43;101031.25;5052567;28;45647;-71
2022/08/18 11:47:59;;;;;;;;;19.00;19.00;;;;;28.87;43.96;101025.59;5049388;28;45489;-71
2022/08/18 11:50:29;;;;;;;;;15.67;15.67;;;;;28.87;44.23;101031.91;5051918;28;45493;-71
2022/08/18 11:52:55;;;;;;;;;17.67;17.67;;;;;28.88;44.07;101035.47;5053183;28;45485;-71
2022/08/18 11:55:34;;;;;;;;;18.00;16.33;;;;;28.91;44.15;101037.84;5004717;28;45322;-70
2022/08/18 11:58:03;;;;;;;;;18.33;18.00;;;;;28.86;43.91;101035.69;4965906;28;45396;-71
2022/08/18 12:00:35;;;;;;;;;19.33;17.67;;;;;28.90;44.02;101034.25;4971269;28;45414;-71
2022/08/18 12:03:07;;;;;;;;;21.33;18.33;;;;;28.91;43.99;101041.44;4959632;28;45539;-70
2022/08/18 12:05:47;;;;;;;;;15.33;15.33;;;;;28.90;43.75;101036.97;4967019;28;45489;-70
2022/08/18 12:08:48;;;;;;;;;19.33;15.00;;;;;28.75;44.30;101045.25;4961068;28;45517;-69
2022/08/18 12:11:21;;;;;;;;;13.33;13.33;;;;;28.50;45.24;101029.28;4972430;28;45665;-68
2022/08/18 12:13:56;;;;;;;;;18.67;18.67;;;;;28.32;45.10;101042.53;4961670;28;47253;-69
2022/08/18 12:16:36;;;;;;;;;15.67;15.67;;;;;28.14;45.77;101022.81;4960147;28;45314;-68
2022/08/18 12:19:04;;;;;;;;;16.33;16.00;;;;;28.04;45.97;101027.72;4955868;28;45391;-68
2022/08/18 12:21:30;;;;;;;;;18.33;16.33;;;;;27.93;45.97;101028.22;4973429;28;45400;-70
2022/08/18 12:23:56;;;;;;;;;17.00;17.00;;;;;27.81;46.76;101027.84;4955650;28;45630;-69
2022/08/18 12:26:21;;;;;;;;;16.00;16.00;;;;;27.59;46.09;101008.69;4966473;28;45306;-71
2022/08/18 12:28:46;;;;;;;;;16.67;16.00;;;;;27.58;46.39;101017.88;4952591;28;45586;-71
2022/08/18 12:31:12;;;;;;;;;15.00;14.33;;;;;27.45;46.61;101011.22;4948969;28;45792;-70
2022/08/18 12:33:37;;;;;;;;;18.00;18.00;;;;;27.41;46.88;101011.78;4955645;28;45719;-71
2022/08/18 12:36:03;;;;;;;;;17.00;17.00;;;;;27.34;46.96;101006.25;4959679;28;45400;-70
2022/08/18 12:38:30;;;;;;;;;17.33;16.33;;;;;27.28;47.26;101007.84;4963303;28;45702;-70
2022/08/18 12:40:55;;;;;;;;;15.33;15.33;;;;;27.25;47.34;101007.38;4957594;28;45420;-68
2022/08/18 12:43:21;;;;;;;;;18.00;16.00;;;;;27.20;47.96;101000.63;4972791;28;45394;-69
2022/08/18 12:45:46;;;;;;;;;16.67;16.67;;;;;27.23;48.01;101002.94;4962946;28;45470;-68
2022/08/18 12:48:12;;;;;;;;;19.33;17.00;;;;;27.25;47.35;101010.94;4967420;28;45410;-67
2022/08/18 12:50:38;;;;;;;;;15.67;15.67;;;;;27.31;47.38;101012.06;4962585;28;45497;-68
2022/08/18 12:53:03;;;;;;;;;17.00;17.00;;;;;27.35;47.32;101007.94;4954099;28;45824;-68
2022/08/18 12:55:35;;;;;;;;;15.00;15.00;;;;;27.40;47.88;101005.50;4952770;28;45577;-67
2022/08/18 12:58:02;;;;;;;;;20.00;17.00;;;;;27.44;47.29;101000.50;4953634;28;45350;-68
2022/08/18 13:00:28;;;;;;;;;14.67;14.67;;;;;27.44;47.31;101004.09;4954603;28;45601;-67
2022/08/18 13:02:54;;;;;;;;;16.67;14.33;;;;;27.43;47.84;100993.38;4964327;28;45389;-68
2022/08/18 13:05:19;;;;;;;;;17.67;17.67;;;;;27.44;47.61;100995.91;4969681;28;45420;-70
2022/08/18 13:07:45;;;;;;;;;16.67;15.00;;;;;27.37;47.32;101003.16;4965315;28;45489;-70
2022/08/18 13:10:11;;;;;;;;;14.00;14.00;;;;;27.33;47.43;100991.78;4959643;28;45344;-69
2022/08/18 13:12:36;;;;;;;;;15.00;14.67;;;;;27.27;48.10;100995.25;4972174;28;46303;-69
2022/08/18 13:15:04;;;;;;;;;17.33;15.67;;;;;27.16;47.87;100988.41;4964327;28;46097;-69
2022/08/18 13:17:30;;;;;;;;;14.00;14.00;;;;;27.16;47.45;100993.84;4952813;28;45599;-68
2022/08/18 13:19:55;;;;;;;;;17.67;15.33;;;;;27.12;47.71;100980.78;4950975;28;45371;-69
2022/08/18 13:22:21;;;;;;;;;24.67;20.33;;;;;27.08;48.41;100980.31;4959387;28;46045;-68
2022/08/18 13:24:46;;;;;;;;;16.33;16.33;;;;;27.12;48.50;100986.22;4966142;28;49530;-68
2022/08/18 13:27:11;;;;;;;;;18.67;15.00;;;;;27.23;48.01;100977.59;4963433;28;45865;-69
2022/08/18 13:29:37;;;;;;;;;16.00;16.00;;;;;27.41;48.01;100985.38;4967945;28;45457;-69
2022/08/18 13:32:07;;;;;;;;;13.67;13.67;;;;;27.56;47.24;100985.38;5019971;28;45475;-68
2022/08/18 13:34:33;;;;;;;;;15.67;14.33;;;;;27.74;47.03;100984.13;4977572;27;45436;-69
2022/08/18 13:36:58;;;;;;;;;15.67;12.33;;;;;27.84;46.58;100987.41;4972073;28;45438;-69
2022/08/18 13:39:24;;;;;;;;;17.33;15.33;;;;;27.98;46.56;100984.81;4959833;28;45440;-68
2022/08/18 13:41:52;;;;;;;;;19.67;15.67;;;;;28.11;46.09;100984.97;4959323;28;46202;-69
2022/08/18 13:44:21;;;;;;;;;15.33;15.33;;;;;28.20;46.54;100982.97;4973217;28;45462;-69
2022/08/18 13:46:48;;;;;;;;;17.00;13.67;;;;;28.28;46.29;100984.75;4958451;28;45448;-69
2022/08/18 13:49:15;;;;;;;;;15.67;13.00;;;;;28.37;45.91;100980.84;4971688;28;45451;-69
2022/08/18 13:51:42;;;;;;;;;17.67;16.33;;;;;28.45;45.55;100985.34;4972393;28;46190;-69
2022/08/18 13:54:08;;;;;;;;;13.67;12.33;;;;;28.51;45.40;100983.69;5006002;27;45449;-69
2022/08/18 13:56:34;;;;;;;;;12.67;12.00;;;;;28.57;45.63;100990.25;4975433;28;45724;-69
2022/08/18 13:58:59;;;;;;;;;10.67;10.67;;;;;28.58;45.86;100981.88;5044390;27;45450;-68
2022/08/18 14:01:24;;;;;;;;;14.33;14.33;;;;;28.64;45.75;100994.72;4963615;28;45578;-68
2022/08/18 14:03:49;;;;;;;;;12.00;12.00;;;;;28.70;45.56;100987.66;4973175;28;45411;-68
2022/08/18 14:06:16;;;;;;;;;14.67;12.00;;;;;28.72;45.36;100990.19;4972949;28;46240;-69
2022/08/18 14:08:41;;;;;;;;;12.33;10.00;;;;;28.74;45.19;100988.09;4965113;28;45567;-68
2022/08/18 14:11:07;;;;;;;;;13.33;12.00;;;;;28.76;45.71;100989.56;4972289;28;45373;-68
2022/08/18 14:13:33;;;;;;;;;12.00;12.00;;;;;28.79;45.23;100991.06;4975880;28;45466;-68
2022/08/18 14:16:00;;;;;;;;;14.67;12.67;;;;;28.80;44.89;100990.00;4967400;28;45360;-69
2022/08/18 14:18:28;;;;;;;;;14.00;12.33;;;;;28.80;45.58;100979.94;4975148;28;45412;-69
2022/08/18 14:29:05;;;;;;;;;21.67;20.67;;;;;28.82;44.93;100962.50;4980309;28;45512;-69
2022/08/18 14:31:32;;;;;;;;;33.00;21.67;;;;;28.83;44.81;100961.47;4963957;28;45413;-69
2022/08/18 14:33:57;;;;;;;;;32.00;25.67;;;;;28.86;45.38;100975.59;4958528;28;47342;-69
2022/08/18 14:36:23;;;;;;;;;41.33;27.67;;;;;28.88;45.29;100973.53;4958528;28;45710;-69
2022/08/18 14:38:49;;;;;;;;;38.67;29.00;;;;;28.87;45.02;100963.59;4956397;28;45412;-69
2022/08/18 14:41:14;;;;;;;;;50.67;35.33;;;;;28.91;44.80;100967.66;4953621;28;45709;-69
2022/08/18 14:43:40;;;;;;;;;40.00;29.00;;;;;28.92;45.36;100969.34;4959162;28;45341;-69
2022/08/18 14:46:05;;;;;;;;;46.33;32.33;;;;;28.93;45.54;100960.09;4963591;28;45503;-69
2022/08/18 14:48:31;;;;;;;;;49.33;32.33;;;;;28.93;44.89;100962.84;4959603;28;45363;-69
2022/08/18 14:50:59;;;;;;;;;43.00;30.33;;;;;28.94;45.22;100966.41;4954186;28;46014;-70
2022/08/18 14:53:28;;;;;;;;;53.67;33.33;;;;;28.97;45.87;100967.91;4954337;28;45439;-71
2022/08/18 14:55:55;;;;;;;;;51.67;34.67;;;;;28.98;45.13;100964.94;4953801;28;45469;-70
2022/08/18 14:58:27;;;;;;;;;52.67;36.33;;;;;29.01;44.98;100961.81;4954408;28;45447;-71
2022/08/18 15:01:06;;;;;;;;;52.33;34.67;;;;;29.01;44.77;100959.09;4962472;28;45918;-70
2022/08/18 15:03:33;;;;;;;;;43.67;29.67;;;;;29.03;44.90;100965.22;4954247;28;45722;-70
2022/08/18 15:06:00;;;;;;;;;37.33;26.33;;;;;29.03;45.14;100967.97;4957742;28;45342;-70
2022/08/18 15:08:26;;;;;;;;;42.67;29.00;;;;;29.03;45.46;100970.69;4956164;28;45513;-70
2022/08/18 15:10:51;;;;;;;;;39.33;25.67;;;;;29.03;44.97;100958.91;4952356;28;46333;-70
2022/08/18 15:13:17;;;;;;;;;40.67;28.00;;;;;28.99;45.04;100961.19;4954631;28;45450;-71
2022/08/18 15:15:42;;;;;;;;;37.33;24.00;;;;;29.02;44.74;100960.78;4962218;28;45430;-72
2022/08/18 15:18:08;;;;;;;;;37.00;29.33;;;;;29.04;45.01;100964.16;4965998;28;45451;-71
2022/08/18 15:25:40;;;;;;;;;41.67;32.67;;;;;29.06;44.68;100969.44;4960812;28;46204;-72
2022/08/18 15:26:03;;;;;;;;;37.33;31.00;;;;;29.08;44.88;100966.47;4958258;28;45419;-72
2022/08/18 15:28:29;;;;;;;;;41.00;30.33;;;;;29.09;44.97;100962.72;4964139;28;45456;-71
2022/08/18 15:30:54;;;;;;;;;43.67;31.00;;;;;29.08;44.74;100967.34;4961835;28;45554;-71
2022/08/18 15:33:22;;;;;;;;;38.33;28.00;;;;;29.06;44.62;100953.88;4965173;28;45404;-71
2022/08/18 15:35:48;;;;;;;;;36.00;26.67;;;;;29.08;44.20;100958.28;4963442;28;45398;-71
2022/08/18 15:38:17;;;;;;;;;40.00;29.67;;;;;29.10;44.96;100965.22;4968697;28;45404;-71
2022/08/18 15:41:02;;;;;;;;;39.33;29.00;;;;;29.11;44.50;100963.34;4957222;28;46608;-72
2022/08/18 15:43:30;;;;;;;;;45.67;28.00;;;;;29.10;44.54;100959.75;4967805;28;45830;-71
2022/08/18 15:45:56;;;;;;;;;46.67;31.33;;;;;29.11;44.23;100963.34;4963208;28;45451;-71
2022/08/18 15:48:22;;;;;;;;;40.67;30.00;;;;;29.10;44.44;100967.97;4983114;28;45450;-71
2022/08/18 15:50:49;;;;;;;;;36.00;24.00;;;;;29.10;44.52;100965.22;4962686;28;45572;-71
2022/08/18 15:53:18;;;;;;;;;34.00;25.67;;;;;29.09;44.52;100958.09;4970811;28;45760;-71
2022/08/18 15:55:43;;;;;;;;;38.33;25.00;;;;;29.05;44.31;100962.25;4964291;28;45403;-71
2022/08/18 15:58:10;;;;;;;;;42.00;30.00;;;;;29.09;44.68;100963.56;4968701;28;45469;-71
2022/08/18 16:00:37;;;;;;;;;48.33;32.67;;;;;29.09;44.54;100958.09;4958135;28;45529;-72
2022/08/18 16:03:06;;;;;;;;;46.67;30.33;;;;;29.09;43.98;100965.47;4966556;28;45734;-71
2022/08/18 16:05:36;;;;;;;;;43.00;30.00;;;;;29.10;44.09;100967.13;4970987;28;47293;-71
2022/08/18 16:08:05;;;;;;;;;29.00;23.33;;;;;29.11;44.12;100971.56;4972442;28;45985;-71
2022/08/18 16:10:35;;;;;;;;;42.33;30.33;;;;;29.11;44.31;100974.28;4958291;28;45934;-71
2022/08/18 16:13:03;;;;;;;;;46.00;31.00;;;;;29.03;43.82;100959.75;4966688;28;45521;-71
2022/08/18 16:15:30;;;;;;;;;31.67;24.67;;;;;29.13;44.00;100974.91;4995659;28;45729;-71
2022/08/18 16:17:56;;;;;;;;;42.33;26.33;;;;;29.02;44.67;100971.69;5009525;27;46320;-71
2022/08/18 16:20:22;;;;;;;;;39.67;28.33;;;;;28.85;44.68;100979.34;4969533;28;46533;-72
2022/08/18 16:22:49;;;;;;;;;34.33;25.33;;;;;28.64;44.66;100972.03;4967562;28;45487;-71
2022/08/18 16:25:15;;;;;;;;;37.67;25.00;;;;;28.46;45.16;100967.06;4956485;28;45438;-71
2022/08/18 16:27:41;;;;;;;;;36.67;22.67;;;;;28.32;45.28;100977.84;4961140;28;45364;-71
2022/08/18 16:30:10;;;;;;;;;24.33;19.67;;;;;28.15;45.50;100974.50;4959264;28;47053;-72
2022/08/18 16:32:35;;;;;;;;;23.67;18.33;;;;;28.00;45.73;100971.84;4954519;28;45495;-71
2022/08/18 16:35:01;;;;;;;;;20.33;18.33;;;;;27.87;46.08;100967.94;4958413;28;46097;-72
2022/08/18 16:37:26;;;;;;;;;17.67;16.67;;;;;27.79;46.32;100972.66;4955954;28;45435;-71
2022/08/18 16:39:53;;;;;;;;;18.67;17.33;;;;;27.70;45.89;100978.22;4960864;28;46823;-72
2022/08/18 16:42:19;;;;;;;;;21.33;16.67;;;;;27.62;46.42;100981.06;4952885;28;45471;-70
2022/08/18 16:44:44;;;;;;;;;22.00;18.00;;;;;27.55;46.33;100969.22;4951675;28;45435;-70
2022/08/18 16:47:11;;;;;;;;;22.33;16.00;;;;;27.47;46.31;100973.72;4955890;28;45385;-71
2022/08/18 16:49:38;;;;;;;;;17.00;14.00;;;;;27.45;46.28;100986.69;4953229;28;45510;-71
2022/08/18 16:52:05;;;;;;;;;21.33;14.33;;;;;27.42;46.94;100978.06;4959149;28;45372;-71
2022/08/18 16:54:32;;;;;;;;;18.33;16.67;;;;;27.40;47.03;100986.44;4953262;28;45435;-71
2022/08/18 16:56:58;;;;;;;;;19.67;17.67;;;;;27.37;47.27;100975.88;4961417;28;45592;-71
2022/08/18 17:04:41;;;;;;;;;19.00;18.33;;;;;27.29;46.84;100973.25;4952425;28;45458;-71
2022/08/18 17:07:06;;;;;;;;;16.00;12.00;;;;;27.29;47.38;100978.69;4954022;28;45379;-71
2022/08/18 17:09:33;;;;;;;;;27.00;17.33;;;;;27.28;47.71;100977.03;4956261;28;45380;-71
2022/08/18 17:12:00;;;;;;;;;19.00;12.67;;;;;27.27;47.12;100975.34;4969071;28;45531;-70
2022/08/18 17:14:28;;;;;;;;;17.67;12.33;;;;;27.26;47.19;100979.94;4969423;28;45492;-70
2022/08/18 17:16:55;;;;;;;;;17.67;15.33;;;;;27.22;47.64;100970.47;4953349;28;45400;-72
2022/08/18 17:19:23;;;;;;;;;16.33;13.33;;;;;27.27;47.20;100980.78;4961727;28;45573;-71